sensor_id;sensor_type;location;lat;lon;timestamp;P1;durP1;ratioP1;P2;durP2;ratioP2
50633;SDS011;36596;55.798;38.462;2022-07-24T00:01:38;21.05;;;17.40;;
50633;SDS011;36596;55.798;38.462;2022-07-24T00:04:04;22.52;;;17.08;;
50633;SDS011;36596;55.798;38.462;2022-07-24T00:06:31;23.00;;;17.40;;
50633;SDS011;36596;55.798;38.462;2022-07-24T00:08:58;20.65;;;15.68;;
50633;SDS011;36596;55.798;38.462;2022-07-24T00:11:24;21.05;;;15.75;;
50633;SDS011;36596;55.798;38.462;2022-07-24T00:13:49;18.83;;;15.82;;
50633;SDS011;36596;55.798;38.462;2022-07-24T00:16:15;22.23;;;16.63;;
50633;SDS011;36596;55.798;38.462;2022-07-24T00:18:41;19.73;;;16.42;;
50633;SDS011;36596;55.798;38.462;2022-07-24T00:21:07;23.48;;;16.38;;
50633;SDS011;36596;55.798;38.462;2022-07-24T00:23:33;19.73;;;15.57;;
50633;SDS011;36596;55.798;38.462;2022-07-24T00:25:59;22.20;;;15.55;;
50633;SDS011;36596;55.798;38.462;2022-07-24T00:28:25;19.70;;;16.20;;
50633;SDS011;36596;55.798;38.462;2022-07-24T00:30:50;20.65;;;15.57;;
50633;SDS011;36596;55.798;38.462;2022-07-24T00:33:16;22.38;;;15.25;;
50633;SDS011;36596;55.798;38.462;2022-07-24T00:35:42;18.42;;;14.32;;
50633;SDS011;36596;55.798;38.462;2022-07-24T00:38:09;18.88;;;14.25;;
50633;SDS011;36596;55.798;38.462;2022-07-24T00:40:35;18.65;;;15.07;;
50633;SDS011;36596;55.798;38.462;2022-07-24T00:43:02;18.40;;;15.00;;
50633;SDS011;36596;55.798;38.462;2022-07-24T00:45:28;19.80;;;15.32;;
50633;SDS011;36596;55.798;38.462;2022-07-24T00:47:54;18.83;;;14.90;;
50633;SDS011;36596;55.798;38.462;2022-07-24T00:50:20;20.13;;;15.23;;
50633;SDS011;36596;55.798;38.462;2022-07-24T00:52:46;19.80;;;15.70;;
50633;SDS011;36596;55.798;38.462;2022-07-24T00:55:12;18.10;;;15.25;;
50633;SDS011;36596;55.798;38.462;2022-07-24T00:57:39;20.25;;;15.07;;
50633;SDS011;36596;55.798;38.462;2022-07-24T01:00:05;19.02;;;15.80;;
50633;SDS011;36596;55.798;38.462;2022-07-24T01:02:33;21.17;;;14.00;;
50633;SDS011;36596;55.798;38.462;2022-07-24T01:04:59;16.85;;;13.68;;
50633;SDS011;36596;55.798;38.462;2022-07-24T01:07:26;17.17;;;13.38;;
50633;SDS011;36596;55.798;38.462;2022-07-24T01:09:52;19.98;;;16.05;;
50633;SDS011;36596;55.798;38.462;2022-07-24T01:12:18;20.40;;;15.20;;
50633;SDS011;36596;55.798;38.462;2022-07-24T01:14:44;18.50;;;14.60;;
50633;SDS011;36596;55.798;38.462;2022-07-24T01:17:10;20.00;;;14.98;;
50633;SDS011;36596;55.798;38.462;2022-07-24T01:19:36;15.23;;;12.10;;
50633;SDS011;36596;55.798;38.462;2022-07-24T01:22:02;18.42;;;13.55;;
50633;SDS011;36596;55.798;38.462;2022-07-24T01:24:28;16.52;;;13.70;;
50633;SDS011;36596;55.798;38.462;2022-07-24T01:26:55;16.27;;;13.50;;
50633;SDS011;36596;55.798;38.462;2022-07-24T01:29:21;16.63;;;13.52;;
50633;SDS011;36596;55.798;38.462;2022-07-24T01:31:47;16.85;;;14.18;;
50633;SDS011;36596;55.798;38.462;2022-07-24T01:34:12;19.27;;;14.55;;
50633;SDS011;36596;55.798;38.462;2022-07-24T01:36:39;19.02;;;14.68;;
50633;SDS011;36596;55.798;38.462;2022-07-24T01:39:05;16.38;;;14.65;;
50633;SDS011;36596;55.798;38.462;2022-07-24T01:41:31;20.92;;;16.40;;
50633;SDS011;36596;55.798;38.462;2022-07-24T01:43:57;19.20;;;14.77;;
50633;SDS011;36596;55.798;38.462;2022-07-24T01:46:23;18.45;;;15.57;;
50633;SDS011;36596;55.798;38.462;2022-07-24T01:48:49;21.02;;;14.73;;
50633;SDS011;36596;55.798;38.462;2022-07-24T01:51:15;16.17;;;13.10;;
50633;SDS011;36596;55.798;38.462;2022-07-24T01:53:41;16.33;;;14.30;;
50633;SDS011;36596;55.798;38.462;2022-07-24T01:56:07;16.75;;;14.00;;
50633;SDS011;36596;55.798;38.462;2022-07-24T01:58:32;17.17;;;13.20;;
50633;SDS011;36596;55.798;38.462;2022-07-24T02:00:58;17.25;;;13.75;;
50633;SDS011;36596;55.798;38.462;2022-07-24T02:03:25;17.77;;;14.02;;
50633;SDS011;36596;55.798;38.462;2022-07-24T02:05:53;15.35;;;13.50;;
50633;SDS011;36596;55.798;38.462;2022-07-24T02:08:19;16.08;;;14.23;;
50633;SDS011;36596;55.798;38.462;2022-07-24T02:10:45;18.73;;;13.60;;
50633;SDS011;36596;55.798;38.462;2022-07-24T02:13:10;17.58;;;13.70;;
50633;SDS011;36596;55.798;38.462;2022-07-24T02:15:39;16.58;;;14.48;;
50633;SDS011;36596;55.798;38.462;2022-07-24T02:18:04;16.63;;;12.85;;
50633;SDS011;36596;55.798;38.462;2022-07-24T02:20:30;16.25;;;14.18;;
50633;SDS011;36596;55.798;38.462;2022-07-24T02:22:56;12.77;;;11.45;;
50633;SDS011;36596;55.798;38.462;2022-07-24T02:25:22;14.23;;;11.18;;
50633;SDS011;36596;55.798;38.462;2022-07-24T02:27:50;13.07;;;10.82;;
50633;SDS011;36596;55.798;38.462;2022-07-24T02:30:19;17.20;;;12.95;;
50633;SDS011;36596;55.798;38.462;2022-07-24T02:32:47;17.65;;;13.85;;
50633;SDS011;36596;55.798;38.462;2022-07-24T02:35:13;18.33;;;12.70;;
50633;SDS011;36596;55.798;38.462;2022-07-24T02:37:40;14.60;;;12.20;;
50633;SDS011;36596;55.798;38.462;2022-07-24T02:40:08;14.13;;;11.40;;
50633;SDS011;36596;55.798;38.462;2022-07-24T02:42:36;12.15;;;10.02;;
50633;SDS011;36596;55.798;38.462;2022-07-24T02:45:04;15.52;;;10.70;;
50633;SDS011;36596;55.798;38.462;2022-07-24T02:47:32;12.45;;;10.50;;
50633;SDS011;36596;55.798;38.462;2022-07-24T02:49:58;16.13;;;11.07;;
50633;SDS011;36596;55.798;38.462;2022-07-24T02:52:24;12.55;;;9.35;;
50633;SDS011;36596;55.798;38.462;2022-07-24T02:54:49;14.77;;;8.65;;
50633;SDS011;36596;55.798;38.462;2022-07-24T02:57:15;13.80;;;11.20;;
50633;SDS011;36596;55.798;38.462;2022-07-24T02:59:41;12.77;;;8.63;;
50633;SDS011;36596;55.798;38.462;2022-07-24T03:02:07;13.85;;;9.80;;
50633;SDS011;36596;55.798;38.462;2022-07-24T03:04:33;11.38;;;8.05;;
50633;SDS011;36596;55.798;38.462;2022-07-24T03:06:58;10.60;;;8.48;;
50633;SDS011;36596;55.798;38.462;2022-07-24T03:09:24;13.25;;;9.55;;
50633;SDS011;36596;55.798;38.462;2022-07-24T03:11:50;12.65;;;9.48;;
50633;SDS011;36596;55.798;38.462;2022-07-24T03:14:16;14.02;;;11.05;;
50633;SDS011;36596;55.798;38.462;2022-07-24T03:16:41;14.60;;;11.43;;
50633;SDS011;36596;55.798;38.462;2022-07-24T03:19:07;20.85;;;12.18;;
50633;SDS011;36596;55.798;38.462;2022-07-24T03:21:33;18.05;;;11.68;;
50633;SDS011;36596;55.798;38.462;2022-07-24T03:23:59;18.10;;;12.13;;
50633;SDS011;36596;55.798;38.462;2022-07-24T03:26:25;16.80;;;12.40;;
50633;SDS011;36596;55.798;38.462;2022-07-24T03:28:50;18.95;;;12.82;;
50633;SDS011;36596;55.798;38.462;2022-07-24T03:31:16;18.90;;;11.80;;
50633;SDS011;36596;55.798;38.462;2022-07-24T03:33:42;13.32;;;9.80;;
50633;SDS011;36596;55.798;38.462;2022-07-24T03:36:08;15.57;;;10.80;;
50633;SDS011;36596;55.798;38.462;2022-07-24T03:38:34;16.25;;;11.43;;
50633;SDS011;36596;55.798;38.462;2022-07-24T03:41:00;14.90;;;9.82;;
50633;SDS011;36596;55.798;38.462;2022-07-24T03:43:26;10.35;;;8.63;;
50633;SDS011;36596;55.798;38.462;2022-07-24T03:45:52;16.20;;;10.05;;
50633;SDS011;36596;55.798;38.462;2022-07-24T03:48:17;18.50;;;9.85;;
50633;SDS011;36596;55.798;38.462;2022-07-24T03:50:44;14.50;;;11.07;;
50633;SDS011;36596;55.798;38.462;2022-07-24T03:53:09;13.68;;;9.15;;
50633;SDS011;36596;55.798;38.462;2022-07-24T03:55:35;11.95;;;8.27;;
50633;SDS011;36596;55.798;38.462;2022-07-24T03:58:01;14.82;;;9.32;;
50633;SDS011;36596;55.798;38.462;2022-07-24T04:00:27;15.05;;;9.25;;
50633;SDS011;36596;55.798;38.462;2022-07-24T04:02:53;13.90;;;8.95;;
50633;SDS011;36596;55.798;38.462;2022-07-24T04:05:19;15.13;;;10.73;;
50633;SDS011;36596;55.798;38.462;2022-07-24T04:07:44;16.17;;;10.32;;
50633;SDS011;36596;55.798;38.462;2022-07-24T04:10:10;12.80;;;10.00;;
50633;SDS011;36596;55.798;38.462;2022-07-24T04:12:36;13.63;;;10.23;;
50633;SDS011;36596;55.798;38.462;2022-07-24T04:15:02;14.63;;;10.07;;
50633;SDS011;36596;55.798;38.462;2022-07-24T04:17:29;16.42;;;10.45;;
50633;SDS011;36596;55.798;38.462;2022-07-24T04:19:55;13.80;;;10.13;;
50633;SDS011;36596;55.798;38.462;2022-07-24T04:22:20;15.50;;;10.65;;
50633;SDS011;36596;55.798;38.462;2022-07-24T04:24:46;15.82;;;11.48;;
50633;SDS011;36596;55.798;38.462;2022-07-24T04:27:12;9.77;;;8.80;;
50633;SDS011;36596;55.798;38.462;2022-07-24T04:29:38;13.52;;;8.90;;
50633;SDS011;36596;55.798;38.462;2022-07-24T04:32:04;17.98;;;14.23;;
50633;SDS011;36596;55.798;38.462;2022-07-24T04:34:30;10.18;;;8.10;;
50633;SDS011;36596;55.798;38.462;2022-07-24T04:36:55;9.43;;;8.43;;
50633;SDS011;36596;55.798;38.462;2022-07-24T04:39:21;13.00;;;8.70;;
50633;SDS011;36596;55.798;38.462;2022-07-24T04:41:47;12.20;;;7.65;;
50633;SDS011;36596;55.798;38.462;2022-07-24T04:44:13;12.07;;;8.20;;
50633;SDS011;36596;55.798;38.462;2022-07-24T04:46:39;10.93;;;7.97;;
50633;SDS011;36596;55.798;38.462;2022-07-24T04:49:05;15.63;;;8.70;;
50633;SDS011;36596;55.798;38.462;2022-07-24T04:51:30;17.15;;;8.48;;
50633;SDS011;36596;55.798;38.462;2022-07-24T04:53:56;16.65;;;8.07;;
50633;SDS011;36596;55.798;38.462;2022-07-24T04:56:24;20.30;;;8.57;;
50633;SDS011;36596;55.798;38.462;2022-07-24T04:58:50;14.80;;;7.95;;
50633;SDS011;36596;55.798;38.462;2022-07-24T05:01:16;11.73;;;6.85;;
50633;SDS011;36596;55.798;38.462;2022-07-24T05:03:42;12.73;;;7.93;;
50633;SDS011;36596;55.798;38.462;2022-07-24T05:06:08;11.60;;;7.20;;
50633;SDS011;36596;55.798;38.462;2022-07-24T05:08:34;12.68;;;7.55;;
50633;SDS011;36596;55.798;38.462;2022-07-24T05:10:59;10.75;;;6.75;;
50633;SDS011;36596;55.798;38.462;2022-07-24T05:13:25;8.52;;;6.47;;
50633;SDS011;36596;55.798;38.462;2022-07-24T05:15:51;9.90;;;6.78;;
50633;SDS011;36596;55.798;38.462;2022-07-24T05:18:17;7.97;;;5.80;;
50633;SDS011;36596;55.798;38.462;2022-07-24T05:20:42;6.10;;;5.47;;
50633;SDS011;36596;55.798;38.462;2022-07-24T05:23:08;6.78;;;5.25;;
50633;SDS011;36596;55.798;38.462;2022-07-24T05:25:34;6.65;;;5.35;;
50633;SDS011;36596;55.798;38.462;2022-07-24T05:28:00;9.68;;;4.80;;
50633;SDS011;36596;55.798;38.462;2022-07-24T05:30:26;5.40;;;4.40;;
50633;SDS011;36596;55.798;38.462;2022-07-24T05:32:52;5.78;;;4.70;;
50633;SDS011;36596;55.798;38.462;2022-07-24T05:35:18;5.10;;;4.60;;
50633;SDS011;36596;55.798;38.462;2022-07-24T05:37:44;6.43;;;4.63;;
50633;SDS011;36596;55.798;38.462;2022-07-24T05:40:10;6.85;;;4.90;;
50633;SDS011;36596;55.798;38.462;2022-07-24T05:42:36;8.65;;;4.68;;
50633;SDS011;36596;55.798;38.462;2022-07-24T05:45:02;4.55;;;4.07;;
50633;SDS011;36596;55.798;38.462;2022-07-24T05:47:34;4.90;;;3.58;;
50633;SDS011;36596;55.798;38.462;2022-07-24T05:50:02;4.80;;;4.25;;
50633;SDS011;36596;55.798;38.462;2022-07-24T05:52:31;4.43;;;4.03;;
50633;SDS011;36596;55.798;38.462;2022-07-24T05:54:56;4.68;;;4.05;;
50633;SDS011;36596;55.798;38.462;2022-07-24T05:57:22;6.40;;;4.65;;
50633;SDS011;36596;55.798;38.462;2022-07-24T05:59:48;6.18;;;3.97;;
50633;SDS011;36596;55.798;38.462;2022-07-24T06:02:14;7.03;;;4.22;;
50633;SDS011;36596;55.798;38.462;2022-07-24T06:04:39;5.53;;;3.28;;
50633;SDS011;36596;55.798;38.462;2022-07-24T06:07:08;5.03;;;3.30;;
50633;SDS011;36596;55.798;38.462;2022-07-24T06:09:35;4.78;;;4.28;;
50633;SDS011;36596;55.798;38.462;2022-07-24T06:12:01;4.75;;;3.80;;
50633;SDS011;36596;55.798;38.462;2022-07-24T06:14:27;5.78;;;4.03;;
50633;SDS011;36596;55.798;38.462;2022-07-24T06:16:53;6.60;;;4.28;;
50633;SDS011;36596;55.798;38.462;2022-07-24T06:19:19;7.03;;;3.83;;
50633;SDS011;36596;55.798;38.462;2022-07-24T06:21:45;4.93;;;2.97;;
50633;SDS011;36596;55.798;38.462;2022-07-24T06:24:11;4.20;;;2.90;;
50633;SDS011;36596;55.798;38.462;2022-07-24T06:26:37;3.92;;;3.53;;
50633;SDS011;36596;55.798;38.462;2022-07-24T06:29:03;6.28;;;3.67;;
50633;SDS011;36596;55.798;38.462;2022-07-24T06:31:28;3.45;;;3.15;;
50633;SDS011;36596;55.798;38.462;2022-07-24T06:33:54;3.90;;;3.47;;
50633;SDS011;36596;55.798;38.462;2022-07-24T06:36:20;7.05;;;3.53;;
50633;SDS011;36596;55.798;38.462;2022-07-24T06:38:46;6.45;;;3.83;;
50633;SDS011;36596;55.798;38.462;2022-07-24T06:41:14;4.50;;;4.10;;
50633;SDS011;36596;55.798;38.462;2022-07-24T06:43:40;5.85;;;4.22;;
50633;SDS011;36596;55.798;38.462;2022-07-24T06:46:06;5.53;;;4.65;;
50633;SDS011;36596;55.798;38.462;2022-07-24T06:48:32;4.13;;;3.72;;
50633;SDS011;36596;55.798;38.462;2022-07-24T06:50:57;4.13;;;3.72;;
50633;SDS011;36596;55.798;38.462;2022-07-24T06:53:23;6.38;;;3.70;;
50633;SDS011;36596;55.798;38.462;2022-07-24T06:55:49;4.53;;;3.83;;
50633;SDS011;36596;55.798;38.462;2022-07-24T06:58:19;5.05;;;3.70;;
50633;SDS011;36596;55.798;38.462;2022-07-24T07:00:45;6.30;;;3.60;;
50633;SDS011;36596;55.798;38.462;2022-07-24T07:03:12;4.30;;;3.63;;
50633;SDS011;36596;55.798;38.462;2022-07-24T07:05:40;4.77;;;3.37;;
50633;SDS011;36596;55.798;38.462;2022-07-24T07:08:06;6.53;;;3.50;;
50633;SDS011;36596;55.798;38.462;2022-07-24T07:10:32;4.38;;;3.58;;
50633;SDS011;36596;55.798;38.462;2022-07-24T07:12:58;4.28;;;3.05;;
50633;SDS011;36596;55.798;38.462;2022-07-24T07:15:24;5.13;;;2.80;;
50633;SDS011;36596;55.798;38.462;2022-07-24T07:17:50;2.75;;;2.25;;
50633;SDS011;36596;55.798;38.462;2022-07-24T07:20:16;3.63;;;2.70;;
50633;SDS011;36596;55.798;38.462;2022-07-24T07:22:43;3.22;;;2.17;;
50633;SDS011;36596;55.798;38.462;2022-07-24T07:25:09;3.25;;;2.35;;
50633;SDS011;36596;55.798;38.462;2022-07-24T07:27:36;4.00;;;2.13;;
50633;SDS011;36596;55.798;38.462;2022-07-24T07:30:03;3.13;;;2.70;;
50633;SDS011;36596;55.798;38.462;2022-07-24T07:32:30;3.45;;;2.58;;
50633;SDS011;36596;55.798;38.462;2022-07-24T07:34:55;4.80;;;2.40;;
50633;SDS011;36596;55.798;38.462;2022-07-24T07:37:21;3.20;;;1.92;;
50633;SDS011;36596;55.798;38.462;2022-07-24T07:39:49;4.22;;;1.77;;
50633;SDS011;36596;55.798;38.462;2022-07-24T07:42:15;2.72;;;1.70;;
50633;SDS011;36596;55.798;38.462;2022-07-24T07:44:41;4.38;;;2.40;;
50633;SDS011;36596;55.798;38.462;2022-07-24T07:47:07;2.40;;;2.20;;
50633;SDS011;36596;55.798;38.462;2022-07-24T07:49:33;3.20;;;2.28;;
50633;SDS011;36596;55.798;38.462;2022-07-24T07:51:59;2.45;;;2.22;;
50633;SDS011;36596;55.798;38.462;2022-07-24T07:54:24;2.97;;;2.42;;
50633;SDS011;36596;55.798;38.462;2022-07-24T07:56:50;4.18;;;2.53;;
50633;SDS011;36596;55.798;38.462;2022-07-24T07:59:16;3.25;;;2.50;;
50633;SDS011;36596;55.798;38.462;2022-07-24T08:01:42;2.92;;;2.50;;
50633;SDS011;36596;55.798;38.462;2022-07-24T08:04:08;3.88;;;2.92;;
50633;SDS011;36596;55.798;38.462;2022-07-24T08:06:34;6.15;;;2.35;;
50633;SDS011;36596;55.798;38.462;2022-07-24T08:08:59;2.90;;;2.40;;
50633;SDS011;36596;55.798;38.462;2022-07-24T08:11:25;3.00;;;2.40;;
50633;SDS011;36596;55.798;38.462;2022-07-24T08:13:51;2.85;;;2.58;;
50633;SDS011;36596;55.798;38.462;2022-07-24T08:16:17;3.08;;;2.67;;
50633;SDS011;36596;55.798;38.462;2022-07-24T08:18:42;3.25;;;2.92;;
50633;SDS011;36596;55.798;38.462;2022-07-24T08:21:08;3.78;;;2.88;;
50633;SDS011;36596;55.798;38.462;2022-07-24T08:23:34;3.30;;;2.90;;
50633;SDS011;36596;55.798;38.462;2022-07-24T08:26:00;4.82;;;3.08;;
50633;SDS011;36596;55.798;38.462;2022-07-24T08:28:25;3.65;;;3.33;;
50633;SDS011;36596;55.798;38.462;2022-07-24T08:30:51;3.15;;;2.78;;
50633;SDS011;36596;55.798;38.462;2022-07-24T08:33:17;3.50;;;3.00;;
50633;SDS011;36596;55.798;38.462;2022-07-24T08:35:43;3.63;;;3.30;;
50633;SDS011;36596;55.798;38.462;2022-07-24T08:38:09;3.67;;;3.10;;
50633;SDS011;36596;55.798;38.462;2022-07-24T08:40:38;3.97;;;3.65;;
50633;SDS011;36596;55.798;38.462;2022-07-24T08:43:05;5.90;;;3.40;;
50633;SDS011;36596;55.798;38.462;2022-07-24T08:45:36;3.88;;;3.58;;
50633;SDS011;36596;55.798;38.462;2022-07-24T08:48:04;7.20;;;4.13;;
50633;SDS011;36596;55.798;38.462;2022-07-24T08:50:32;5.00;;;3.95;;
50633;SDS011;36596;55.798;38.462;2022-07-24T08:53:00;7.18;;;4.22;;
50633;SDS011;36596;55.798;38.462;2022-07-24T08:55:27;6.05;;;3.92;;
50633;SDS011;36596;55.798;38.462;2022-07-24T09:00:23;4.53;;;3.75;;
50633;SDS011;36596;55.798;38.462;2022-07-24T09:02:49;4.30;;;3.90;;
50633;SDS011;36596;55.798;38.462;2022-07-24T09:05:15;4.90;;;4.40;;
50633;SDS011;36596;55.798;38.462;2022-07-24T09:07:41;6.18;;;3.78;;
50633;SDS011;36596;55.798;38.462;2022-07-24T09:10:08;6.68;;;3.83;;
50633;SDS011;36596;55.798;38.462;2022-07-24T09:12:36;6.03;;;3.97;;
50633;SDS011;36596;55.798;38.462;2022-07-24T09:17:52;5.10;;;4.07;;
50633;SDS011;36596;55.798;38.462;2022-07-24T09:20:20;5.10;;;3.90;;
50633;SDS011;36596;55.798;38.462;2022-07-24T09:22:51;4.00;;;3.58;;
50633;SDS011;36596;55.798;38.462;2022-07-24T09:25:19;4.25;;;3.85;;
50633;SDS011;36596;55.798;38.462;2022-07-24T09:30:30;4.93;;;4.00;;
50633;SDS011;36596;55.798;38.462;2022-07-24T09:35:34;4.25;;;3.85;;
50633;SDS011;36596;55.798;38.462;2022-07-24T09:38:14;4.88;;;4.38;;
50633;SDS011;36596;55.798;38.462;2022-07-24T09:40:55;6.10;;;4.38;;
50633;SDS011;36596;55.798;38.462;2022-07-24T09:43:29;6.10;;;4.28;;
50633;SDS011;36596;55.798;38.462;2022-07-24T09:48:32;6.80;;;4.68;;
50633;SDS011;36596;55.798;38.462;2022-07-24T09:51:02;5.13;;;4.63;;
50633;SDS011;36596;55.798;38.462;2022-07-24T09:53:38;5.55;;;4.22;;
50633;SDS011;36596;55.798;38.462;2022-07-24T09:56:05;5.60;;;4.68;;
50633;SDS011;36596;55.798;38.462;2022-07-24T09:58:36;7.15;;;4.80;;
50633;SDS011;36596;55.798;38.462;2022-07-24T10:01:16;5.20;;;4.72;;
50633;SDS011;36596;55.798;38.462;2022-07-24T10:03:44;6.55;;;4.68;;
50633;SDS011;36596;55.798;38.462;2022-07-24T10:06:12;6.03;;;4.68;;
50633;SDS011;36596;55.798;38.462;2022-07-24T10:08:40;6.88;;;4.57;;
50633;SDS011;36596;55.798;38.462;2022-07-24T10:11:09;5.82;;;4.65;;
50633;SDS011;36596;55.798;38.462;2022-07-24T10:13:35;9.32;;;4.68;;
50633;SDS011;36596;55.798;38.462;2022-07-24T10:18:56;6.53;;;4.65;;
50633;SDS011;36596;55.798;38.462;2022-07-24T10:21:25;4.63;;;4.22;;
50633;SDS011;36596;55.798;38.462;2022-07-24T10:28:54;4.60;;;4.05;;
50633;SDS011;36596;55.798;38.462;2022-07-24T10:31:42;5.03;;;4.53;;
50633;SDS011;36596;55.798;38.462;2022-07-24T10:34:15;5.97;;;4.70;;
50633;SDS011;36596;55.798;38.462;2022-07-24T10:42:23;4.22;;;3.92;;
50633;SDS011;36596;55.798;38.462;2022-07-24T10:47:48;4.75;;;3.92;;
50633;SDS011;36596;55.798;38.462;2022-07-24T10:50:14;6.68;;;4.00;;
50633;SDS011;36596;55.798;38.462;2022-07-24T10:52:40;4.75;;;3.90;;
50633;SDS011;36596;55.798;38.462;2022-07-24T10:55:19;4.25;;;3.85;;
50633;SDS011;36596;55.798;38.462;2022-07-24T10:57:58;4.55;;;3.97;;
50633;SDS011;36596;55.798;38.462;2022-07-24T11:00:37;3.92;;;3.63;;
50633;SDS011;36596;55.798;38.462;2022-07-24T11:03:07;4.03;;;3.45;;
50633;SDS011;36596;55.798;38.462;2022-07-24T11:05:42;3.58;;;3.28;;
50633;SDS011;36596;55.798;38.462;2022-07-24T11:10:54;4.05;;;3.42;;
50633;SDS011;36596;55.798;38.462;2022-07-24T11:16:11;3.45;;;2.95;;
50633;SDS011;36596;55.798;38.462;2022-07-24T11:18:41;3.17;;;2.75;;
50633;SDS011;36596;55.798;38.462;2022-07-24T11:27:24;4.25;;;2.35;;
50633;SDS011;36596;55.798;38.462;2022-07-24T11:29:36;3.03;;;2.10;;
50633;SDS011;36596;55.798;38.462;2022-07-24T11:32:07;2.78;;;2.17;;
50633;SDS011;36596;55.798;38.462;2022-07-24T11:34:36;3.63;;;2.20;;
50633;SDS011;36596;55.798;38.462;2022-07-24T11:37:10;2.83;;;1.92;;
50633;SDS011;36596;55.798;38.462;2022-07-24T11:39:37;2.60;;;2.30;;
50633;SDS011;36596;55.798;38.462;2022-07-24T11:47:21;2.00;;;1.73;;
50633;SDS011;36596;55.798;38.462;2022-07-24T11:49:49;2.25;;;1.48;;
50633;SDS011;36596;55.798;38.462;2022-07-24T11:54:50;4.15;;;2.08;;
50633;SDS011;36596;55.798;38.462;2022-07-24T11:57:25;3.03;;;1.80;;
50633;SDS011;36596;55.798;38.462;2022-07-24T11:59:55;2.88;;;1.67;;
50633;SDS011;36596;55.798;38.462;2022-07-24T12:02:22;2.40;;;1.70;;
50633;SDS011;36596;55.798;38.462;2022-07-24T12:04:51;3.53;;;1.88;;
50633;SDS011;36596;55.798;38.462;2022-07-24T12:12:21;3.75;;;2.15;;
50633;SDS011;36596;55.798;38.462;2022-07-24T12:14:47;4.72;;;2.13;;
50633;SDS011;36596;55.798;38.462;2022-07-24T12:17:13;3.22;;;1.85;;
50633;SDS011;36596;55.798;38.462;2022-07-24T12:19:39;4.22;;;2.28;;
50633;SDS011;36596;55.798;38.462;2022-07-24T12:22:06;4.50;;;1.98;;
50633;SDS011;36596;55.798;38.462;2022-07-24T12:24:35;4.90;;;2.17;;
50633;SDS011;36596;55.798;38.462;2022-07-24T12:27:01;4.18;;;2.13;;
50633;SDS011;36596;55.798;38.462;2022-07-24T12:29:27;3.47;;;2.63;;
50633;SDS011;36596;55.798;38.462;2022-07-24T12:31:53;2.65;;;1.95;;
50633;SDS011;36596;55.798;38.462;2022-07-24T12:34:44;5.95;;;2.00;;
50633;SDS011;36596;55.798;38.462;2022-07-24T12:37:15;2.88;;;2.00;;
50633;SDS011;36596;55.798;38.462;2022-07-24T12:39:59;3.38;;;2.10;;
50633;SDS011;36596;55.798;38.462;2022-07-24T12:42:29;2.92;;;2.25;;
50633;SDS011;36596;55.798;38.462;2022-07-24T12:45:04;2.55;;;2.00;;
50633;SDS011;36596;55.798;38.462;2022-07-24T12:47:32;4.70;;;2.10;;
50633;SDS011;36596;55.798;38.462;2022-07-24T12:49:57;6.07;;;2.40;;
50633;SDS011;36596;55.798;38.462;2022-07-24T12:52:24;4.30;;;2.40;;
50633;SDS011;36596;55.798;38.462;2022-07-24T12:54:53;3.90;;;2.10;;
50633;SDS011;36596;55.798;38.462;2022-07-24T12:57:22;2.78;;;2.50;;
50633;SDS011;36596;55.798;38.462;2022-07-24T12:59:49;3.80;;;2.42;;
50633;SDS011;36596;55.798;38.462;2022-07-24T13:02:19;3.35;;;2.03;;
50633;SDS011;36596;55.798;38.462;2022-07-24T13:04:50;2.92;;;2.40;;
50633;SDS011;36596;55.798;38.462;2022-07-24T13:07:22;2.67;;;1.90;;
50633;SDS011;36596;55.798;38.462;2022-07-24T13:09:49;4.40;;;1.95;;
50633;SDS011;36596;55.798;38.462;2022-07-24T13:12:16;4.57;;;2.07;;
50633;SDS011;36596;55.798;38.462;2022-07-24T13:14:43;5.22;;;2.05;;
50633;SDS011;36596;55.798;38.462;2022-07-24T13:17:10;3.03;;;2.25;;
50633;SDS011;36596;55.798;38.462;2022-07-24T13:19:38;3.58;;;2.17;;
50633;SDS011;36596;55.798;38.462;2022-07-24T13:22:07;3.72;;;1.88;;
50633;SDS011;36596;55.798;38.462;2022-07-24T13:24:34;5.10;;;1.92;;
50633;SDS011;36596;55.798;38.462;2022-07-24T13:29:28;4.03;;;1.80;;
50633;SDS011;36596;55.798;38.462;2022-07-24T13:31:53;3.47;;;1.95;;
50633;SDS011;36596;55.798;38.462;2022-07-24T13:34:20;2.33;;;1.73;;
50633;SDS011;36596;55.798;38.462;2022-07-24T13:36:46;2.95;;;2.03;;
50633;SDS011;36596;55.798;38.462;2022-07-24T13:39:12;2.78;;;2.38;;
50633;SDS011;36596;55.798;38.462;2022-07-24T13:41:39;3.30;;;2.30;;
50633;SDS011;36596;55.798;38.462;2022-07-24T13:44:07;2.38;;;2.17;;
50633;SDS011;36596;55.798;38.462;2022-07-24T13:46:33;2.85;;;2.30;;
50633;SDS011;36596;55.798;38.462;2022-07-24T13:49:00;4.50;;;2.03;;
50633;SDS011;36596;55.798;38.462;2022-07-24T13:51:27;2.45;;;2.25;;
50633;SDS011;36596;55.798;38.462;2022-07-24T13:53:53;2.65;;;2.08;;
50633;SDS011;36596;55.798;38.462;2022-07-24T13:56:19;2.40;;;1.90;;
50633;SDS011;36596;55.798;38.462;2022-07-24T14:01:13;3.70;;;2.35;;
50633;SDS011;36596;55.798;38.462;2022-07-24T14:03:39;3.33;;;2.20;;
50633;SDS011;36596;55.798;38.462;2022-07-24T14:06:10;2.30;;;2.00;;
50633;SDS011;36596;55.798;38.462;2022-07-24T14:08:37;5.18;;;2.38;;
50633;SDS011;36596;55.798;38.462;2022-07-24T14:11:03;2.75;;;2.10;;
50633;SDS011;36596;55.798;38.462;2022-07-24T14:13:33;2.17;;;1.98;;
50633;SDS011;36596;55.798;38.462;2022-07-24T14:16:02;3.10;;;2.28;;
50633;SDS011;36596;55.798;38.462;2022-07-24T14:18:28;2.42;;;2.00;;
50633;SDS011;36596;55.798;38.462;2022-07-24T14:20:54;2.30;;;2.10;;
50633;SDS011;36596;55.798;38.462;2022-07-24T14:23:20;2.95;;;1.75;;
50633;SDS011;36596;55.798;38.462;2022-07-24T14:25:49;4.40;;;2.30;;
50633;SDS011;36596;55.798;38.462;2022-07-24T14:28:14;2.95;;;2.25;;
50633;SDS011;36596;55.798;38.462;2022-07-24T14:30:40;2.75;;;2.33;;
50633;SDS011;36596;55.798;38.462;2022-07-24T14:33:06;3.13;;;2.40;;
50633;SDS011;36596;55.798;38.462;2022-07-24T14:35:33;5.20;;;2.28;;
50633;SDS011;36596;55.798;38.462;2022-07-24T14:38:00;4.55;;;2.28;;
50633;SDS011;36596;55.798;38.462;2022-07-24T14:40:26;3.50;;;2.13;;
50633;SDS011;36596;55.798;38.462;2022-07-24T14:42:52;3.33;;;2.05;;
50633;SDS011;36596;55.798;38.462;2022-07-24T14:45:18;8.93;;;2.22;;
50633;SDS011;36596;55.798;38.462;2022-07-24T14:47:44;4.75;;;2.60;;
50633;SDS011;36596;55.798;38.462;2022-07-24T14:50:10;8.23;;;2.60;;
50633;SDS011;36596;55.798;38.462;2022-07-24T14:52:39;3.20;;;2.40;;
50633;SDS011;36596;55.798;38.462;2022-07-24T14:55:05;2.70;;;2.28;;
50633;SDS011;36596;55.798;38.462;2022-07-24T14:57:32;3.47;;;2.50;;
50633;SDS011;36596;55.798;38.462;2022-07-24T14:59:58;3.40;;;2.05;;
50633;SDS011;36596;55.798;38.462;2022-07-24T15:02:24;4.30;;;2.20;;
50633;SDS011;36596;55.798;38.462;2022-07-24T15:04:50;3.13;;;2.50;;
50633;SDS011;36596;55.798;38.462;2022-07-24T15:07:15;4.15;;;2.92;;
50633;SDS011;36596;55.798;38.462;2022-07-24T15:09:41;4.07;;;2.50;;
50633;SDS011;36596;55.798;38.462;2022-07-24T15:12:08;4.40;;;2.78;;
50633;SDS011;36596;55.798;38.462;2022-07-24T15:14:33;3.42;;;2.50;;
50633;SDS011;36596;55.798;38.462;2022-07-24T15:16:59;4.53;;;3.05;;
50633;SDS011;36596;55.798;38.462;2022-07-24T15:19:25;3.95;;;2.85;;
50633;SDS011;36596;55.798;38.462;2022-07-24T15:21:52;4.60;;;3.00;;
50633;SDS011;36596;55.798;38.462;2022-07-24T15:24:18;2.53;;;2.28;;